createdAt,value
2023-03-27T00:01:30.903Z,99286.00
2023-03-27T00:04:00.622Z,99302.75
2023-03-27T00:06:28.729Z,99309.97
2023-03-27T00:08:56.608Z,99291.88
2023-03-27T00:11:25.243Z,99289.00
2023-03-27T00:13:56.048Z,99292.94
2023-03-27T00:16:27.115Z,99294.19
2023-03-27T00:18:55.805Z,99314.34
2023-03-27T00:21:23.721Z,99306.00
2023-03-27T00:23:52.470Z,99306.03
2023-03-27T00:26:22.392Z,99308.16
2023-03-27T00:28:50.789Z,99309.44
2023-03-27T00:31:18.978Z,99312.19
2023-03-27T00:33:47.100Z,99312.38
2023-03-27T00:36:15.610Z,99314.66
2023-03-27T00:38:44.097Z,99321.94
2023-03-27T00:41:12.988Z,99314.19
2023-03-27T00:43:44.220Z,99318.63
2023-03-27T00:46:15.769Z,99317.56
2023-03-27T00:48:47.412Z,99319.91
2023-03-27T00:51:16.917Z,99324.69
2023-03-27T00:53:46.450Z,99335.72
2023-03-27T00:56:16.745Z,99335.22
2023-03-27T00:58:55.945Z,99319.13
2023-03-27T01:01:28.348Z,99320.09
2023-03-27T01:04:00.890Z,99313.66
2023-03-27T01:06:30.319Z,99316.69
2023-03-27T01:08:59.757Z,99314.75
2023-03-27T01:11:36.785Z,99322.56
2023-03-27T01:14:10.647Z,99327.63
2023-03-27T01:16:56.520Z,99329.25
2023-03-27T01:19:57.214Z,99335.13
2023-03-27T01:22:57.808Z,99341.25
2023-03-27T01:25:45.559Z,99331.22
2023-03-27T01:28:19.339Z,99330.47
2023-03-27T01:31:07.481Z,99331.53
2023-03-27T01:33:54.521Z,99323.81
2023-03-27T01:36:45.486Z,99336.91
2023-03-27T01:39:16.378Z,99341.31
2023-03-27T01:42:10.809Z,99347.84
2023-03-27T01:45:02.589Z,99367.44
2023-03-27T01:47:43.545Z,99364.88
2023-03-27T01:50:27.426Z,99376.06
2023-03-27T01:53:04.239Z,99374.53
2023-03-27T01:55:36.692Z,99374.91
2023-03-27T01:58:14.148Z,99370.44
2023-03-27T02:00:51.974Z,99357.88
2023-03-27T02:03:34.986Z,99359.00
2023-03-27T02:06:17.193Z,99354.84
2023-03-27T02:08:53.685Z,99359.81
2023-03-27T02:11:26.947Z,99370.06
2023-03-27T02:14:00.667Z,99362.13
2023-03-27T02:16:34.039Z,99365.06
2023-03-27T02:19:12.826Z,99365.34
2023-03-27T02:21:40.713Z,99381.19
2023-03-27T02:24:09.176Z,99386.25
2023-03-27T02:26:37.349Z,99388.78
2023-03-27T02:29:32.988Z,99389.34
2023-03-27T02:32:14.278Z,99398.06
2023-03-27T02:35:01.052Z,99387.34
2023-03-27T02:38:17.668Z,99382.56
2023-03-27T02:41:13.752Z,99389.25
2023-03-27T02:44:06.361Z,99400.50
2023-03-27T02:46:51.569Z,99404.41
2023-03-27T02:49:30.150Z,99385.91
2023-03-27T02:52:08.239Z,99379.50
2023-03-27T02:54:43.524Z,99398.19
2023-03-27T02:57:17.098Z,99397.25
2023-03-27T03:00:29.387Z,99408.00
2023-03-27T03:03:28.024Z,99411.06
2023-03-27T03:06:07.510Z,99415.28
2023-03-27T03:08:39.273Z,99420.41
2023-03-27T03:11:13.590Z,99426.97
2023-03-27T03:13:41.755Z,99432.25
2023-03-27T03:16:10.325Z,99426.84
2023-03-27T03:18:38.362Z,99429.03
2023-03-27T03:21:06.477Z,99413.31
2023-03-27T03:23:35.242Z,99418.91
2023-03-27T03:26:03.492Z,99429.78
2023-03-27T03:29:01.329Z,99437.59
2023-03-27T03:31:43.689Z,99444.53
2023-03-27T03:34:14.625Z,99435.75
2023-03-27T03:36:45.098Z,99439.53
2023-03-27T03:39:13.347Z,99443.69
2023-03-27T03:41:42.766Z,99431.41
2023-03-27T03:44:11.131Z,99441.91
2023-03-27T03:46:40.798Z,99442.88
2023-03-27T03:49:09.651Z,99454.19
2023-03-27T03:51:37.540Z,99472.44
2023-03-27T03:54:09.580Z,99474.53
2023-03-27T03:56:41.812Z,99478.59
2023-03-27T03:59:11.319Z,99477.59
2023-03-27T04:01:57.728Z,99486.94
2023-03-27T04:04:30.925Z,99486.53
2023-03-27T04:07:12.034Z,99482.38
2023-03-27T04:09:45.289Z,99484.47
2023-03-27T04:12:24.683Z,99486.09
2023-03-27T04:14:58.235Z,99490.16
2023-03-27T04:17:45.536Z,99490.00
2023-03-27T04:20:13.577Z,99488.34
2023-03-27T04:22:46.696Z,99480.53
2023-03-27T04:25:18.289Z,99468.78
2023-03-27T04:27:46.662Z,99462.66
2023-03-27T04:30:37.295Z,99476.72
2023-03-27T04:33:06.477Z,99479.13
2023-03-27T04:36:06.129Z,99493.78
2023-03-27T04:38:55.748Z,99496.31
2023-03-27T04:41:24.070Z,99487.22
2023-03-27T04:43:51.929Z,99489.03
2023-03-27T04:46:19.731Z,99495.59
2023-03-27T04:48:53.306Z,99500.88
2023-03-27T04:51:42.342Z,99503.81
2023-03-27T04:54:12.044Z,99495.59
2023-03-27T04:56:45.862Z,99505.50
2023-03-27T04:59:15.780Z,99505.50
2023-03-27T05:01:47.075Z,99509.41
2023-03-27T05:04:26.880Z,99507.03
2023-03-27T05:07:12.444Z,99501.72
2023-03-27T05:09:40.478Z,99499.81
2023-03-27T05:12:10.941Z,99503.97
2023-03-27T05:15:04.403Z,99511.91
2023-03-27T05:17:42.081Z,99507.75
2023-03-27T05:20:17.234Z,99530.31
2023-03-27T05:22:45.859Z,99529.66
2023-03-27T05:25:33.276Z,99530.59
2023-03-27T05:28:04.127Z,99540.66
2023-03-27T05:30:35.563Z,99548.03
2023-03-27T05:33:23.419Z,99559.66
2023-03-27T05:35:53.378Z,99560.47
2023-03-27T05:38:23.004Z,99557.25
2023-03-27T05:41:16.005Z,99546.50
2023-03-27T05:43:48.546Z,99537.31
2023-03-27T05:46:21.153Z,99543.56
2023-03-27T05:48:59.529Z,99544.97
2023-03-27T05:51:27.791Z,99555.44
2023-03-27T05:53:55.765Z,99567.13
2023-03-27T05:56:56.296Z,99558.38
2023-03-27T05:59:24.310Z,99561.84
2023-03-27T06:01:58.737Z,99584.06
2023-03-27T06:04:35.266Z,99576.78
2023-03-27T06:07:06.839Z,99578.75
2023-03-27T06:09:39.374Z,99584.16
2023-03-27T06:12:27.269Z,99595.19
2023-03-27T06:15:05.997Z,99585.13
2023-03-27T06:17:41.592Z,99593.19
2023-03-27T06:20:12.733Z,99587.63
2023-03-27T06:22:55.793Z,99597.66
2023-03-27T06:25:32.406Z,99599.31
2023-03-27T06:28:02.634Z,99595.28
2023-03-27T06:30:33.038Z,99598.63
2023-03-27T06:33:41.461Z,99601.28
2023-03-27T06:36:20.942Z,99600.19
2023-03-27T06:38:52.144Z,99600.31
2023-03-27T06:41:20.434Z,99600.97
2023-03-27T06:44:06.830Z,99602.13
2023-03-27T06:46:55.101Z,99610.09
2023-03-27T06:49:48.946Z,99614.19
2023-03-27T06:52:22.882Z,99611.66
2023-03-27T06:54:51.161Z,99610.69
2023-03-27T06:57:19.097Z,99620.03
2023-03-27T06:59:53.638Z,99626.75
2023-03-27T07:02:25.782Z,99621.88
2023-03-27T07:05:04.308Z,99617.69
2023-03-27T07:07:41.850Z,99619.78
2023-03-27T07:10:12.446Z,99616.72
2023-03-27T07:12:45.855Z,99626.75
2023-03-27T07:15:18.031Z,99630.94
2023-03-27T07:17:54.245Z,99626.41
2023-03-27T07:20:22.954Z,99626.88
2023-03-27T07:22:51.484Z,99633.03
2023-03-27T07:25:38.462Z,99642.00
2023-03-27T07:28:16.930Z,99639.00
2023-03-27T07:30:45.067Z,99636.22
2023-03-27T07:33:13.382Z,99637.41
2023-03-27T07:35:43.784Z,99631.31
2023-03-27T07:38:34.548Z,99626.56
2023-03-27T07:41:24.484Z,99621.78
2023-03-27T07:44:11.393Z,99622.72
2023-03-27T07:47:00.648Z,99632.16
2023-03-27T07:49:39.356Z,99633.69
2023-03-27T07:52:16.557Z,99628.72
2023-03-27T07:54:54.499Z,99628.88
2023-03-27T07:57:24.889Z,99639.69
2023-03-27T07:59:53.005Z,99642.69
2023-03-27T08:02:40.130Z,99647.22
2023-03-27T08:05:10.126Z,99643.09
2023-03-27T08:07:41.244Z,99647.72
2023-03-27T08:10:10.833Z,99645.50
2023-03-27T08:12:52.242Z,99645.88
2023-03-27T08:15:20.982Z,99641.34
2023-03-27T08:17:54.024Z,99640.59
2023-03-27T08:20:25.361Z,99643.00
2023-03-27T08:22:53.814Z,99637.34
2023-03-27T08:25:43.151Z,99644.44
2023-03-27T08:28:11.757Z,99639.84
2023-03-27T08:30:42.007Z,99634.06
2023-03-27T08:33:10.894Z,99638.28
2023-03-27T08:35:38.916Z,99639.28
2023-03-27T08:38:13.790Z,99643.00
2023-03-27T08:41:30.951Z,99649.69
2023-03-27T08:44:20.233Z,99655.06
2023-03-27T08:47:00.393Z,99654.47
2023-03-27T08:49:36.530Z,99660.44
2023-03-27T08:52:34.507Z,99661.31
2023-03-27T08:55:13.709Z,99659.78
2023-03-27T08:57:51.523Z,99668.81
2023-03-27T09:00:28.077Z,99667.31
2023-03-27T09:03:19.763Z,99677.47
2023-03-27T09:05:58.210Z,99661.44
2023-03-27T09:08:32.310Z,99674.94
2023-03-27T09:11:13.704Z,99678.75
2023-03-27T09:13:52.751Z,99677.75
2023-03-27T09:16:34.515Z,99676.91
2023-03-27T09:19:31.227Z,99677.41
2023-03-27T09:22:02.837Z,99682.41
2023-03-27T09:25:02.682Z,99679.50
2023-03-27T09:27:49.789Z,99691.53
2023-03-27T09:30:53.344Z,99695.53
2023-03-27T09:33:29.745Z,99696.97
2023-03-27T09:35:59.317Z,99702.56
2023-03-27T09:38:45.060Z,99702.84
2023-03-27T09:41:30.736Z,99702.13
2023-03-27T09:44:06.675Z,99720.13
2023-03-27T09:46:44.222Z,99710.69
2023-03-27T09:49:13.748Z,99708.56
2023-03-27T09:51:51.449Z,99715.75
2023-03-27T09:54:54.041Z,99713.44
2023-03-27T09:57:38.844Z,99707.31
2023-03-27T10:00:31.240Z,99714.97
2023-03-27T10:03:14.090Z,99724.31
2023-03-27T10:05:49.900Z,99722.94
2023-03-27T10:08:27.246Z,99722.53
2023-03-27T10:11:16.542Z,99726.16
2023-03-27T10:14:00.631Z,99725.53
2023-03-27T10:16:30.086Z,99703.81
2023-03-27T10:19:06.847Z,99711.06
2023-03-27T10:21:43.516Z,99713.53
2023-03-27T10:24:26.414Z,99713.38
2023-03-27T10:27:25.681Z,99722.00
2023-03-27T10:30:34.790Z,99723.19
2023-03-27T10:33:38.007Z,99725.00
2023-03-27T10:36:40.761Z,99723.94
2023-03-27T10:39:15.338Z,99721.25
2023-03-27T10:42:08.302Z,99724.66
2023-03-27T10:44:38.612Z,99726.03
2023-03-27T10:47:20.860Z,99723.66
2023-03-27T10:49:55.160Z,99726.00
2023-03-27T10:53:05.508Z,99733.69
2023-03-27T10:56:00.237Z,99721.72
2023-03-27T10:58:34.138Z,99725.97
2023-03-27T11:01:19.070Z,99716.97
2023-03-27T11:03:58.283Z,99721.41
2023-03-27T11:06:31.516Z,99723.31
2023-03-27T11:09:24.522Z,99721.88
2023-03-27T11:12:10.545Z,99731.84
2023-03-27T11:15:31.743Z,99726.06
2023-03-27T11:18:09.103Z,99729.97
2023-03-27T11:21:02.793Z,99725.56
2023-03-27T11:24:04.154Z,99732.00
2023-03-27T11:26:59.585Z,99715.75
2023-03-27T11:29:32.974Z,99714.31
2023-03-27T11:32:11.513Z,99704.84
2023-03-27T11:34:57.934Z,99719.53
2023-03-27T11:38:00.846Z,99712.53
2023-03-27T11:40:46.104Z,99718.06
2023-03-27T11:43:16.477Z,99729.56
2023-03-27T11:45:57.159Z,99729.69
2023-03-27T11:48:49.647Z,99733.13
2023-03-27T11:51:43.648Z,99741.63
2023-03-27T11:54:30.307Z,99741.38
2023-03-27T11:57:10.887Z,99747.28
2023-03-27T12:00:27.718Z,99733.53
2023-03-27T12:03:07.005Z,99736.63
2023-03-27T12:06:14.877Z,99744.09
2023-03-27T12:08:51.817Z,99741.09
2023-03-27T12:11:22.125Z,99732.81
2023-03-27T12:14:17.702Z,99740.72
2023-03-27T12:17:10.227Z,99735.50
2023-03-27T12:20:16.319Z,99730.41
2023-03-27T12:23:04.197Z,99730.47
2023-03-27T12:26:01.297Z,99749.94
2023-03-27T12:29:23.309Z,99752.13
2023-03-27T12:32:16.155Z,99750.22
2023-03-27T12:35:00.932Z,99758.91
2023-03-27T12:38:30.574Z,99762.97
2023-03-27T12:41:19.417Z,99763.72
2023-03-27T12:44:15.126Z,99770.28
2023-03-27T12:47:21.902Z,99768.88
2023-03-27T12:50:01.275Z,99762.34
2023-03-27T12:52:38.652Z,99763.72
2023-03-27T12:55:17.738Z,99762.16
2023-03-27T12:57:58.286Z,99759.38
2023-03-27T13:01:00.824Z,99755.59
2023-03-27T13:03:53.554Z,99745.47
2023-03-27T13:06:46.320Z,99741.22
2023-03-27T13:09:28.629Z,99731.19
2023-03-27T13:12:28.861Z,99735.22
2023-03-27T13:15:18.143Z,99730.31
2023-03-27T13:17:55.786Z,99734.78
2023-03-27T13:20:57.144Z,99732.31
2023-03-27T13:23:43.479Z,99734.09
2023-03-27T13:26:26.148Z,99742.81
2023-03-27T13:28:57.260Z,99747.97
2023-03-27T13:31:47.642Z,99748.50
2023-03-27T13:34:41.574Z,99752.16
2023-03-27T13:37:15.060Z,99755.47
2023-03-27T13:39:59.022Z,99753.84
2023-03-27T13:42:41.716Z,99756.66
2023-03-27T13:45:47.170Z,99754.28
2023-03-27T13:48:59.334Z,99761.91
2023-03-27T13:51:53.425Z,99771.38
2023-03-27T13:54:36.946Z,99759.72
2023-03-27T13:57:35.174Z,99773.88
2023-03-27T14:00:24.418Z,99780.72
2023-03-27T14:03:32.094Z,99786.03
2023-03-27T14:06:36.408Z,99786.56
2023-03-27T14:09:33.566Z,99777.41
2023-03-27T14:12:32.190Z,99789.63
2023-03-27T14:15:30.653Z,99791.84
2023-03-27T14:18:56.265Z,99781.94
2023-03-27T14:21:38.430Z,99796.69
2023-03-27T14:24:24.985Z,99795.06
2023-03-27T14:27:01.558Z,99792.16
2023-03-27T14:29:29.827Z,99798.06
2023-03-27T14:32:14.075Z,99794.47
2023-03-27T14:35:05.268Z,99795.34
2023-03-27T14:37:39.130Z,99796.34
2023-03-27T14:40:42.802Z,99798.59
2023-03-27T14:43:17.158Z,99805.50
2023-03-27T14:45:47.120Z,99808.03
2023-03-27T14:48:27.245Z,99804.00
2023-03-27T14:51:02.224Z,99818.06
2023-03-27T14:53:44.399Z,99818.38
2023-03-27T14:56:28.368Z,99824.00
2023-03-27T14:59:11.385Z,99826.72
2023-03-27T15:01:59.350Z,99829.31
2023-03-27T15:04:30.322Z,99836.22
2023-03-27T15:07:15.656Z,99839.00
2023-03-27T15:10:06.160Z,99847.81
2023-03-27T15:12:54.190Z,99855.97
2023-03-27T15:15:24.026Z,99866.63
2023-03-27T15:17:55.377Z,99866.06
2023-03-27T15:20:28.108Z,99869.09
2023-03-27T15:23:36.949Z,99884.69
2023-03-27T15:26:12.547Z,99888.25
2023-03-27T15:28:50.128Z,99891.75
2023-03-27T15:31:19.031Z,99895.53
2023-03-27T15:34:02.579Z,99900.09
2023-03-27T15:36:34.857Z,99902.84
2023-03-27T15:39:05.160Z,99909.00
2023-03-27T15:41:33.054Z,99917.63
2023-03-27T15:44:18.391Z,99917.09
2023-03-27T15:46:48.774Z,99916.75
2023-03-27T15:49:21.626Z,99915.22
2023-03-27T15:51:49.859Z,99911.22
2023-03-27T15:54:36.367Z,99919.56
2023-03-27T15:57:11.795Z,99923.28
2023-03-27T15:59:52.531Z,99932.03
2023-03-27T16:02:25.640Z,99935.22
2023-03-27T16:04:57.366Z,99940.44
2023-03-27T16:07:42.511Z,99938.22
2023-03-27T16:10:11.469Z,99946.81
2023-03-27T16:12:52.075Z,99953.38
2023-03-27T16:15:34.756Z,99951.28
2023-03-27T16:18:17.375Z,99960.38
2023-03-27T16:20:45.389Z,99961.06
2023-03-27T16:23:13.328Z,99967.50
2023-03-27T16:25:41.647Z,99968.09
2023-03-27T16:28:11.446Z,99976.63
2023-03-27T16:30:41.600Z,99980.38
2023-03-27T16:33:18.416Z,99994.91
2023-03-27T16:35:47.714Z,99991.13
2023-03-27T16:38:16.724Z,99997.53
2023-03-27T16:40:45.725Z,100001.75
2023-03-27T16:43:13.648Z,100011.56
2023-03-27T16:45:41.896Z,100015.41
2023-03-27T16:48:10.875Z,100019.09
2023-03-27T16:50:39.120Z,100027.63
2023-03-27T16:53:07.096Z,100038.91
2023-03-27T16:55:35.083Z,100031.50
2023-03-27T16:58:03.922Z,100044.75
2023-03-27T17:00:32.128Z,100049.16
2023-03-27T17:03:00.205Z,100056.38
2023-03-27T17:05:34.095Z,100062.19
2023-03-27T17:08:02.800Z,100076.66
2023-03-27T17:10:31.667Z,100085.81
2023-03-27T17:12:59.631Z,100099.50
2023-03-27T17:15:27.683Z,100095.31
2023-03-27T17:17:55.619Z,100106.22
2023-03-27T17:20:23.445Z,100111.50
2023-03-27T17:22:51.366Z,100116.31
2023-03-27T17:25:19.197Z,100123.94
2023-03-27T17:27:47.096Z,100136.19
2023-03-27T17:30:21.453Z,100141.91
2023-03-27T17:32:55.330Z,100147.38
2023-03-27T17:35:23.732Z,100153.56
2023-03-27T17:37:51.840Z,100153.88
2023-03-27T17:40:19.669Z,100155.84
2023-03-27T17:42:47.532Z,100162.94
2023-03-27T17:45:19.825Z,100169.16
2023-03-27T17:47:47.691Z,100175.44
2023-03-27T17:50:15.789Z,100183.66
2023-03-27T17:52:43.741Z,100196.47
2023-03-27T17:55:11.770Z,100192.78
2023-03-27T17:57:39.943Z,100206.41
2023-03-27T18:00:09.802Z,100207.44
2023-03-27T18:02:40.836Z,100214.00
2023-03-27T18:05:09.240Z,100227.59
2023-03-27T18:07:37.076Z,100231.66
2023-03-27T18:10:05.719Z,100239.06
2023-03-27T18:12:34.169Z,100256.00
2023-03-27T18:15:02.288Z,100264.72
2023-03-27T18:17:30.243Z,100264.41
2023-03-27T18:19:58.158Z,100272.63
2023-03-27T18:22:26.010Z,100287.03
2023-03-27T18:24:53.888Z,100286.84
2023-03-27T18:27:21.709Z,100292.88
2023-03-27T18:29:49.438Z,100312.13
2023-03-27T18:32:17.293Z,100300.41
2023-03-27T18:34:45.096Z,100307.47
2023-03-27T18:37:13.065Z,100323.56
2023-03-27T18:39:40.933Z,100329.16
2023-03-27T18:42:08.939Z,100333.16
2023-03-27T18:44:39.322Z,100340.81
2023-03-27T18:47:08.897Z,100349.88
2023-03-27T18:49:37.119Z,100351.06
2023-03-27T18:52:05.390Z,100354.72
2023-03-27T18:54:33.387Z,100362.94
2023-03-27T18:57:01.516Z,100364.69
2023-03-27T18:59:29.516Z,100366.34
2023-03-27T19:01:57.729Z,100367.47
2023-03-27T19:04:25.736Z,100376.19
2023-03-27T19:06:53.591Z,100386.09
2023-03-27T19:09:25.514Z,100394.41
2023-03-27T19:12:02.531Z,100402.06
2023-03-27T19:14:49.117Z,100400.00
2023-03-27T19:17:35.504Z,100412.88
2023-03-27T19:20:03.689Z,100424.97
2023-03-27T19:22:36.046Z,100431.13
2023-03-27T19:25:21.258Z,100438.00
2023-03-27T19:27:49.125Z,100440.22
2023-03-27T19:30:18.497Z,100455.75
2023-03-27T19:32:46.578Z,100461.34
2023-03-27T19:35:14.649Z,100470.34
2023-03-27T19:37:42.925Z,100466.53
2023-03-27T19:40:11.526Z,100468.53
2023-03-27T19:42:39.437Z,100486.03
2023-03-27T19:45:07.885Z,100492.03
2023-03-27T19:47:35.824Z,100496.75
2023-03-27T19:50:07.036Z,100503.66
2023-03-27T19:52:54.487Z,100504.56
2023-03-27T19:55:33.750Z,100499.84
2023-03-27T19:58:01.702Z,100503.03
2023-03-27T20:00:31.498Z,100516.69
2023-03-27T20:02:59.951Z,100519.03
2023-03-27T20:05:29.744Z,100534.00
2023-03-27T20:07:57.666Z,100546.97
2023-03-27T20:10:27.576Z,100541.06
2023-03-27T20:12:55.549Z,100562.03
2023-03-27T20:15:23.606Z,100570.88
2023-03-27T20:17:51.568Z,100561.00
2023-03-27T20:20:20.099Z,100568.91
2023-03-27T20:22:57.057Z,100564.44
2023-03-27T20:25:28.247Z,100583.56
2023-03-27T20:27:56.659Z,100575.28
2023-03-27T20:30:25.268Z,100571.78
2023-03-27T20:32:53.905Z,100573.75
2023-03-27T20:35:24.808Z,100581.19
2023-03-27T20:37:56.592Z,100573.75
2023-03-27T20:40:26.360Z,100565.75
2023-03-27T20:43:13.044Z,100592.28
2023-03-27T20:45:45.940Z,100581.44
2023-03-27T20:48:15.268Z,100596.06
2023-03-27T20:50:49.229Z,100607.53
2023-03-27T20:53:31.680Z,100606.84
2023-03-27T20:56:03.812Z,100630.53
2023-03-27T20:58:38.650Z,100644.63
2023-03-27T21:01:09.348Z,100660.19
2023-03-27T21:03:42.066Z,100666.78
2023-03-27T21:06:14.338Z,100664.41
2023-03-27T21:08:42.450Z,100689.22
2023-03-27T21:11:10.895Z,100695.69
2023-03-27T21:13:38.846Z,100704.22
2023-03-27T21:16:08.767Z,100723.69
2023-03-27T21:18:36.712Z,100730.44
2023-03-27T21:21:05.186Z,100732.72
2023-03-27T21:23:34.753Z,100734.88
2023-03-27T21:26:02.732Z,100734.97
2023-03-27T21:28:30.711Z,100742.88
2023-03-27T21:30:59.907Z,100776.56
2023-03-27T21:33:27.814Z,100769.56
2023-03-27T21:35:57.242Z,100782.88
2023-03-27T21:38:25.705Z,100790.97
2023-03-27T21:40:53.616Z,100784.00
2023-03-27T21:43:21.630Z,100784.88
2023-03-27T21:45:50.493Z,100799.41
2023-03-27T21:48:18.416Z,100813.34
2023-03-27T21:50:46.788Z,100810.97
2023-03-27T21:53:15.020Z,100825.34
2023-03-27T21:55:43.044Z,100814.78
2023-03-27T21:58:11.298Z,100822.09
2023-03-27T22:00:39.170Z,100826.59
2023-03-27T22:03:07.186Z,100823.09
2023-03-27T22:05:39.119Z,100829.16
2023-03-27T22:08:07.181Z,100834.22
2023-03-27T22:10:35.675Z,100844.88
2023-03-27T22:13:04.117Z,100850.19
2023-03-27T22:15:32.719Z,100845.88
2023-03-27T22:18:01.488Z,100851.19
2023-03-27T22:20:29.489Z,100848.03
2023-03-27T22:22:57.265Z,100855.06
2023-03-27T22:25:25.185Z,100854.56
2023-03-27T22:27:53.225Z,100856.88
2023-03-27T22:30:21.225Z,100855.56
2023-03-27T22:32:49.134Z,100858.19
2023-03-27T22:35:17.220Z,100886.78
2023-03-27T22:37:45.103Z,100887.03
2023-03-27T22:40:13.193Z,100884.47
2023-03-27T22:42:41.413Z,100884.00
2023-03-27T22:45:09.717Z,100896.56
2023-03-27T22:47:37.620Z,100902.16
2023-03-27T22:50:06.637Z,100908.28
2023-03-27T22:52:34.867Z,100906.19
2023-03-27T22:55:02.791Z,100920.06
2023-03-27T22:57:30.654Z,100934.28
2023-03-27T22:59:58.546Z,100941.53
2023-03-27T23:02:26.650Z,100944.19
2023-03-27T23:04:55.141Z,100945.66
2023-03-27T23:07:23.462Z,100956.63
2023-03-27T23:09:51.415Z,100965.66
2023-03-27T23:12:19.376Z,100973.66
2023-03-27T23:14:47.213Z,100983.66
2023-03-27T23:17:15.139Z,100980.34
2023-03-27T23:19:43.077Z,100988.28
2023-03-27T23:22:11.005Z,101003.22
2023-03-27T23:24:38.895Z,101012.31
2023-03-27T23:27:08.856Z,101016.63
2023-03-27T23:29:36.724Z,101018.66
2023-03-27T23:32:04.753Z,101018.41
2023-03-27T23:34:32.599Z,101018.69
2023-03-27T23:37:00.482Z,101023.84
2023-03-27T23:39:28.429Z,101026.13
2023-03-27T23:41:56.314Z,101040.03
2023-03-27T23:44:24.154Z,101047.25
2023-03-27T23:46:51.988Z,101052.66
2023-03-27T23:49:19.856Z,101062.00
2023-03-27T23:51:47.819Z,101060.00
2023-03-27T23:54:15.707Z,101058.72
2023-03-27T23:56:43.646Z,101071.75
2023-03-27T23:59:11.749Z,101079.28
